createdAt,value
2022-12-31T00:00:37.191Z,99958.63
2022-12-31T00:03:24.367Z,99961.94
2022-12-31T00:05:51.903Z,99967.13
2022-12-31T00:08:19.204Z,99961.66
2022-12-31T00:10:46.624Z,99961.19
2022-12-31T00:13:14.153Z,99956.19
2022-12-31T00:15:44.961Z,99953.75
2022-12-31T00:18:11.968Z,99947.19
2022-12-31T00:20:41.870Z,99948.72
2022-12-31T00:23:11.903Z,99951.94
2022-12-31T00:25:39.229Z,99933.25
2022-12-31T00:28:06.524Z,99930.59
2022-12-31T00:30:34.679Z,99935.81
2022-12-31T00:33:01.919Z,99930.03
2022-12-31T00:35:29.665Z,99925.88
2022-12-31T00:37:56.739Z,99925.41
2022-12-31T00:40:24.150Z,99932.44
2022-12-31T00:42:51.135Z,99930.16
2022-12-31T00:45:18.700Z,99929.88
2022-12-31T00:47:45.718Z,99916.19
2022-12-31T00:50:13.533Z,99925.59
2022-12-31T00:52:40.524Z,99925.59
2022-12-31T00:55:10.584Z,99931.38
2022-12-31T00:57:37.545Z,99933.34
2022-12-31T01:00:07.646Z,99937.19
2022-12-31T01:02:34.830Z,99942.53
2022-12-31T01:05:02.397Z,99943.31
2022-12-31T01:07:29.439Z,99950.63
2022-12-31T01:09:57.079Z,99934.38
2022-12-31T01:12:25.193Z,99971.97
2022-12-31T01:14:52.554Z,99952.78
2022-12-31T01:17:19.564Z,99977.59
2022-12-31T01:19:46.967Z,99986.53
2022-12-31T01:22:14.110Z,100000.34
2022-12-31T01:24:41.817Z,100013.56
2022-12-31T01:27:11.434Z,99999.44
2022-12-31T01:29:38.734Z,100001.13
2022-12-31T01:32:06.023Z,100011.78
2022-12-31T01:34:33.539Z,100011.13
2022-12-31T01:37:00.631Z,99998.53
2022-12-31T01:39:27.916Z,100006.25
2022-12-31T01:41:58.410Z,100016.44
2022-12-31T01:44:25.904Z,100006.25
2022-12-31T01:46:56.801Z,100015.97
2022-12-31T01:49:49.859Z,100011.88
2022-12-31T01:52:29.221Z,100001.34
2022-12-31T01:55:15.105Z,99998.00
2022-12-31T01:57:47.060Z,99995.41
2022-12-31T02:00:14.836Z,99992.19
2022-12-31T02:02:44.482Z,100003.44
2022-12-31T02:05:44.593Z,100000.97
2022-12-31T02:08:12.375Z,100003.72
2022-12-31T02:10:39.948Z,100001.28
2022-12-31T02:13:11.035Z,99995.06
2022-12-31T02:15:44.253Z,99990.59
2022-12-31T02:18:23.286Z,99998.34
2022-12-31T02:21:05.792Z,99987.88
2022-12-31T02:24:04.129Z,99990.91
2022-12-31T02:26:58.981Z,99984.31
2022-12-31T02:29:47.271Z,99998.59
2022-12-31T02:32:50.121Z,100010.78
2022-12-31T02:35:25.160Z,99999.38
2022-12-31T02:38:01.244Z,100006.34
2022-12-31T02:40:28.953Z,100005.69
2022-12-31T02:42:56.320Z,100013.44
2022-12-31T02:45:30.567Z,100015.94
2022-12-31T02:48:19.591Z,100019.41
2022-12-31T02:51:19.532Z,100031.72
2022-12-31T02:54:02.047Z,100028.22
2022-12-31T02:56:36.475Z,100038.22
2022-12-31T02:59:40.577Z,100027.28
2022-12-31T03:02:15.997Z,100035.31
2022-12-31T03:04:48.872Z,100036.84
2022-12-31T03:07:23.813Z,100044.88
2022-12-31T03:09:51.582Z,100045.97
2022-12-31T03:12:42.073Z,100051.28
2022-12-31T03:15:20.284Z,100046.28
2022-12-31T03:18:16.520Z,100059.03
2022-12-31T03:21:10.063Z,100056.13
2022-12-31T03:23:50.292Z,100054.59
2022-12-31T03:26:18.054Z,100059.91
2022-12-31T03:28:47.840Z,100057.34
2022-12-31T03:31:16.464Z,100045.44
2022-12-31T03:33:43.886Z,100049.72
2022-12-31T03:36:14.102Z,100057.06
2022-12-31T03:38:41.581Z,100064.16
2022-12-31T03:41:11.142Z,100056.22
2022-12-31T03:43:38.310Z,100071.34
2022-12-31T03:46:05.986Z,100072.84
2022-12-31T03:48:33.279Z,100074.09
2022-12-31T03:51:03.209Z,100073.44
2022-12-31T03:53:30.403Z,100087.63
2022-12-31T03:55:57.830Z,100084.41
2022-12-31T03:58:24.929Z,100091.38
2022-12-31T04:00:52.524Z,100089.13
2022-12-31T04:03:19.725Z,100091.13
2022-12-31T04:05:53.971Z,100090.53
2022-12-31T04:08:21.152Z,100091.00
2022-12-31T04:10:48.593Z,100090.81
2022-12-31T04:13:15.943Z,100091.38
2022-12-31T04:15:45.819Z,100105.38
2022-12-31T04:18:13.395Z,100123.53
2022-12-31T04:20:40.663Z,100106.91
2022-12-31T04:23:07.827Z,100102.34
2022-12-31T04:25:35.109Z,100112.91
2022-12-31T04:28:02.161Z,100117.63
2022-12-31T04:30:29.635Z,100119.78
2022-12-31T04:32:56.583Z,100115.53
2022-12-31T04:35:23.934Z,100122.13
2022-12-31T04:37:51.180Z,100124.09
2022-12-31T04:40:18.716Z,100131.84
2022-12-31T04:42:45.767Z,100135.81
2022-12-31T04:45:13.032Z,100128.16
2022-12-31T04:47:40.223Z,100140.81
2022-12-31T04:50:09.938Z,100131.38
2022-12-31T04:52:42.489Z,100116.28
2022-12-31T04:55:11.418Z,100115.69
2022-12-31T04:57:38.582Z,100119.53
2022-12-31T05:00:06.667Z,100109.78
2022-12-31T05:02:33.924Z,100110.56
2022-12-31T05:05:01.408Z,100116.50
2022-12-31T05:07:28.516Z,100126.41
2022-12-31T05:09:58.145Z,100125.28
2022-12-31T05:12:25.249Z,100121.22
2022-12-31T05:14:54.784Z,100123.47
2022-12-31T05:17:24.477Z,100123.63
2022-12-31T05:19:51.747Z,100128.63
2022-12-31T05:22:34.133Z,100134.09
2022-12-31T05:25:01.556Z,100141.53
2022-12-31T05:27:31.413Z,100138.66
2022-12-31T05:29:59.482Z,100134.41
2022-12-31T05:32:26.665Z,100138.94
2022-12-31T05:34:57.838Z,100144.44
2022-12-31T05:37:29.300Z,100145.78
2022-12-31T05:39:57.092Z,100147.78
2022-12-31T05:42:26.839Z,100144.25
2022-12-31T05:44:54.248Z,100148.84
2022-12-31T05:47:21.682Z,100147.91
2022-12-31T05:49:49.055Z,100154.31
2022-12-31T05:52:16.023Z,100157.91
2022-12-31T05:54:43.754Z,100159.00
2022-12-31T05:57:13.498Z,100159.00
2022-12-31T05:59:41.071Z,100152.59
2022-12-31T06:02:08.223Z,100152.78
2022-12-31T06:04:35.580Z,100156.59
2022-12-31T06:07:05.082Z,100155.34
2022-12-31T06:09:32.504Z,100152.13
2022-12-31T06:12:01.820Z,100148.31
2022-12-31T06:14:29.543Z,100159.28
2022-12-31T06:16:56.481Z,100154.25
2022-12-31T06:19:24.146Z,100145.75
2022-12-31T06:21:51.539Z,100142.38
2022-12-31T06:24:19.104Z,100140.09
2022-12-31T06:26:46.128Z,100155.59
2022-12-31T06:29:13.828Z,100154.25
2022-12-31T06:31:40.976Z,100157.75
2022-12-31T06:34:08.262Z,100161.72
2022-12-31T06:36:35.263Z,100168.41
2022-12-31T06:39:07.285Z,100170.97
2022-12-31T06:41:34.253Z,100169.66
2022-12-31T06:44:04.550Z,100176.81
2022-12-31T06:46:33.747Z,100180.94
2022-12-31T06:49:01.238Z,100177.13
2022-12-31T06:51:28.353Z,100177.59
2022-12-31T06:53:55.762Z,100175.16
2022-12-31T06:56:33.112Z,100183.69
2022-12-31T06:59:01.836Z,100169.06
2022-12-31T07:01:40.185Z,100168.28
2022-12-31T07:04:13.848Z,100171.03
2022-12-31T07:06:48.306Z,100186.69
2022-12-31T07:09:48.732Z,100187.09
2022-12-31T07:12:33.984Z,100182.06
2022-12-31T07:15:33.228Z,100191.06
2022-12-31T07:18:18.442Z,100196.09
2022-12-31T07:20:46.131Z,100202.44
2022-12-31T07:23:13.653Z,100207.47
2022-12-31T07:25:49.123Z,100208.50
2022-12-31T07:28:42.680Z,100222.94
2022-12-31T07:31:22.422Z,100231.09
2022-12-31T07:34:31.841Z,100225.09
2022-12-31T07:37:25.169Z,100233.44
2022-12-31T07:40:18.860Z,100229.50
2022-12-31T07:43:04.539Z,100237.25
2022-12-31T07:45:53.148Z,100235.09
2022-12-31T07:48:28.032Z,100232.91
2022-12-31T07:50:57.331Z,100228.50
2022-12-31T07:53:27.051Z,100229.44
2022-12-31T07:56:00.564Z,100234.72
2022-12-31T07:58:40.593Z,100241.69
2022-12-31T08:01:12.001Z,100236.41
2022-12-31T08:03:57.746Z,100234.94
2022-12-31T08:06:47.745Z,100238.19
2022-12-31T08:09:27.182Z,100241.81
2022-12-31T08:12:00.314Z,100239.28
2022-12-31T08:14:29.069Z,100238.53
2022-12-31T08:16:57.710Z,100240.88
2022-12-31T08:19:30.610Z,100244.22
2022-12-31T08:21:57.700Z,100246.69
2022-12-31T08:24:48.041Z,100259.47
2022-12-31T08:27:32.312Z,100248.47
2022-12-31T08:30:17.904Z,100258.03
2022-12-31T08:32:51.051Z,100263.81
2022-12-31T08:35:25.876Z,100269.19
2022-12-31T08:38:09.923Z,100264.66
2022-12-31T08:40:58.206Z,100267.13
2022-12-31T08:43:26.153Z,100269.00
2022-12-31T08:45:54.217Z,100262.66
2022-12-31T08:48:33.594Z,100271.44
2022-12-31T08:51:01.207Z,100273.88
2022-12-31T08:53:28.616Z,100282.38
2022-12-31T08:56:12.178Z,100296.06
2022-12-31T08:59:29.592Z,100304.63
2022-12-31T09:02:22.803Z,100305.03
2022-12-31T09:05:08.689Z,100302.44
2022-12-31T09:07:39.624Z,100286.44
2022-12-31T09:10:31.856Z,100294.44
2022-12-31T09:13:17.615Z,100290.00
2022-12-31T09:16:09.334Z,100284.41
2022-12-31T09:18:42.876Z,100264.44
2022-12-31T09:21:14.059Z,100289.56
2022-12-31T09:23:45.048Z,100287.75
2022-12-31T09:26:39.751Z,100296.28
2022-12-31T09:29:26.002Z,100295.78
2022-12-31T09:32:25.539Z,100282.97
2022-12-31T09:35:14.517Z,100282.44
2022-12-31T09:39:18.982Z,100280.78
2022-12-31T09:41:52.388Z,100277.50
2022-12-31T09:44:43.001Z,100281.97
2022-12-31T09:47:30.650Z,100274.75
2022-12-31T09:50:49.077Z,100280.41
2022-12-31T09:53:16.688Z,100282.28
2022-12-31T09:55:57.163Z,100277.38
2022-12-31T09:58:32.700Z,100277.94
2022-12-31T10:01:21.682Z,100283.22
2022-12-31T10:14:02.244Z,100269.25
2022-12-31T10:16:42.127Z,100276.81
2022-12-31T10:19:30.496Z,100280.88
2022-12-31T10:22:25.415Z,100267.59
2022-12-31T10:25:38.967Z,100262.28
2022-12-31T10:28:34.607Z,100250.84
2022-12-31T10:31:06.918Z,100247.19
2022-12-31T10:33:43.945Z,100255.19
2022-12-31T10:36:13.891Z,100251.47
2022-12-31T10:38:41.189Z,100250.41
2022-12-31T10:41:31.406Z,100251.41
2022-12-31T10:44:01.797Z,100255.19
2022-12-31T10:46:53.710Z,100262.97
2022-12-31T10:49:52.428Z,100247.94
2022-12-31T10:52:28.490Z,100241.13
2022-12-31T10:55:04.547Z,100229.41
2022-12-31T10:57:34.748Z,100219.91
2022-12-31T11:00:10.498Z,100214.16
2022-12-31T11:02:42.964Z,100201.50
2022-12-31T11:05:47.104Z,100200.06
2022-12-31T11:08:25.926Z,100199.63
2022-12-31T11:11:11.624Z,100199.69
2022-12-31T11:13:47.871Z,100204.66
2022-12-31T11:16:26.858Z,100197.16
2022-12-31T11:19:12.731Z,100199.75
2022-12-31T11:22:13.598Z,100202.25
2022-12-31T11:25:07.874Z,100206.25
2022-12-31T11:27:49.300Z,100207.28
2022-12-31T11:30:48.790Z,100202.00
2022-12-31T11:33:52.858Z,100213.53
2022-12-31T11:36:56.538Z,100202.06
2022-12-31T11:40:01.041Z,100209.63
2022-12-31T11:42:52.195Z,100197.31
2022-12-31T11:45:34.095Z,100192.84
2022-12-31T11:48:33.675Z,100196.28
2022-12-31T11:51:07.291Z,100190.75
2022-12-31T11:54:03.839Z,100187.50
2022-12-31T11:56:38.873Z,100179.03
2022-12-31T11:59:19.216Z,100179.78
2022-12-31T12:01:59.261Z,100186.56
2022-12-31T12:04:26.670Z,100179.78
2022-12-31T12:06:54.230Z,100176.78
2022-12-31T12:09:31.138Z,100185.59
2022-12-31T12:12:04.680Z,100186.16
2022-12-31T12:14:42.061Z,100194.66
2022-12-31T12:17:31.935Z,100182.47
2022-12-31T12:20:10.961Z,100191.75
2022-12-31T12:22:49.886Z,100181.03
2022-12-31T12:25:27.990Z,100193.28
2022-12-31T12:27:55.506Z,100191.25
2022-12-31T12:30:27.843Z,100196.72
2022-12-31T12:33:00.704Z,100194.94
2022-12-31T12:35:33.280Z,100189.16
2022-12-31T12:38:00.701Z,100186.59
2022-12-31T12:40:33.902Z,100190.28
2022-12-31T12:43:03.088Z,100190.97
2022-12-31T12:45:59.108Z,100202.25
2022-12-31T12:48:36.049Z,100202.94
2022-12-31T12:51:26.581Z,100205.22
2022-12-31T12:53:54.461Z,100204.47
2022-12-31T12:56:38.964Z,100194.69
2022-12-31T12:59:24.576Z,100199.47
2022-12-31T13:02:13.004Z,100198.97
2022-12-31T13:04:49.372Z,100193.97
2022-12-31T13:07:31.427Z,100187.50
2022-12-31T13:10:24.994Z,100192.03
2022-12-31T13:15:56.958Z,100195.84
2022-12-31T13:18:51.587Z,100187.34
2022-12-31T13:21:28.995Z,100184.88
2022-12-31T13:24:19.676Z,100192.72
2022-12-31T13:26:53.175Z,100189.50
2022-12-31T13:29:26.365Z,100185.69
2022-12-31T13:32:01.044Z,100189.22
2022-12-31T13:34:39.167Z,100200.25
2022-12-31T13:37:18.388Z,100198.75
2022-12-31T13:39:47.274Z,100204.31
2022-12-31T13:42:31.729Z,100197.28
2022-12-31T13:45:06.350Z,100222.34
2022-12-31T13:47:43.785Z,100218.34
2022-12-31T13:50:39.102Z,100207.53
2022-12-31T13:53:30.549Z,100203.75
2022-12-31T13:56:03.642Z,100200.44
2022-12-31T13:58:46.964Z,100202.69
2022-12-31T14:01:34.704Z,100198.84
2022-12-31T14:04:05.240Z,100196.56
2022-12-31T14:06:49.781Z,100205.53
2022-12-31T14:09:22.668Z,100201.50
2022-12-31T14:11:59.554Z,100211.50
2022-12-31T14:14:42.558Z,100208.19
2022-12-31T14:17:36.552Z,100206.91
2022-12-31T14:20:20.830Z,100213.34
2022-12-31T14:23:03.379Z,100210.75
2022-12-31T14:26:04.327Z,100206.03
2022-12-31T14:28:46.832Z,100213.31
2022-12-31T14:31:26.829Z,100203.75
2022-12-31T14:34:18.269Z,100211.19
2022-12-31T14:37:42.232Z,100203.38
2022-12-31T14:40:15.219Z,100204.34
2022-12-31T14:43:01.259Z,100212.81
2022-12-31T14:46:04.273Z,100212.81
2022-12-31T14:49:06.586Z,100214.53
2022-12-31T14:51:37.266Z,100211.25
2022-12-31T14:54:05.303Z,100219.69
2022-12-31T14:56:42.783Z,100215.84
2022-12-31T14:59:25.306Z,100212.25
2022-12-31T15:01:53.397Z,100206.75
2022-12-31T15:04:33.114Z,100210.19
2022-12-31T15:07:16.688Z,100214.66
2022-12-31T15:10:02.890Z,100208.34
2022-12-31T15:12:39.139Z,100204.00
2022-12-31T15:15:18.842Z,100205.31
2022-12-31T15:17:56.616Z,100203.25
2022-12-31T15:20:39.189Z,100200.44
2022-12-31T15:23:19.843Z,100203.13
2022-12-31T15:25:52.338Z,100211.53
2022-12-31T15:28:33.780Z,100211.03
2022-12-31T15:31:19.611Z,100217.34
2022-12-31T15:34:23.716Z,100224.38
2022-12-31T15:37:00.103Z,100214.59
2022-12-31T15:39:36.895Z,100207.44
2022-12-31T15:45:00.118Z,100208.41
2022-12-31T15:47:41.029Z,100206.50
2022-12-31T15:50:16.935Z,100206.00
2022-12-31T15:53:03.225Z,100203.47
2022-12-31T15:55:37.800Z,100212.41
2022-12-31T15:58:12.371Z,100212.94
2022-12-31T16:01:03.763Z,100215.28
2022-12-31T16:03:32.388Z,100217.34
2022-12-31T16:06:20.459Z,100213.50
2022-12-31T16:08:49.824Z,100226.25
2022-12-31T16:11:19.127Z,100226.78
2022-12-31T16:13:50.832Z,100235.81
2022-12-31T16:16:32.232Z,100243.31
2022-12-31T16:19:01.164Z,100241.31
2022-12-31T16:21:38.918Z,100253.03
2022-12-31T16:24:26.212Z,100253.81
2022-12-31T16:26:56.139Z,100260.56
2022-12-31T16:29:24.427Z,100261.81
2022-12-31T16:31:58.243Z,100259.91
2022-12-31T16:34:27.957Z,100249.91
2022-12-31T16:36:57.101Z,100257.34
2022-12-31T16:39:24.771Z,100254.22
2022-12-31T16:42:07.059Z,100254.34
2022-12-31T16:44:34.501Z,100243.75
2022-12-31T16:47:03.578Z,100245.00
2022-12-31T16:49:33.028Z,100250.69
2022-12-31T16:52:07.974Z,100251.81
2022-12-31T16:54:43.462Z,100246.22
2022-12-31T16:57:20.291Z,100232.66
2022-12-31T16:59:52.732Z,100234.75
2022-12-31T17:02:25.438Z,100236.38
2022-12-31T17:04:56.377Z,100235.69
2022-12-31T17:07:42.633Z,100232.13
2022-12-31T17:10:09.936Z,100216.22
2022-12-31T17:13:28.331Z,100217.97
2022-12-31T17:15:57.960Z,100236.38
2022-12-31T17:18:31.268Z,100236.94
2022-12-31T17:21:10.377Z,100231.09
2022-12-31T17:23:39.961Z,100235.94
2022-12-31T17:26:13.714Z,100236.91
2022-12-31T17:28:47.598Z,100235.66
2022-12-31T17:31:57.315Z,100233.56
2022-12-31T17:34:31.063Z,100221.63
2022-12-31T17:37:18.483Z,100227.41
2022-12-31T17:39:51.397Z,100233.88
2022-12-31T17:42:42.909Z,100231.69
2022-12-31T17:45:22.258Z,100230.09
2022-12-31T17:47:53.804Z,100231.69
2022-12-31T17:50:24.744Z,100232.66
2022-12-31T17:53:12.799Z,100222.13
2022-12-31T17:55:45.558Z,100222.88
2022-12-31T17:58:24.742Z,100228.75
2022-12-31T18:00:57.798Z,100231.78
2022-12-31T18:03:28.041Z,100223.94
2022-12-31T18:05:55.365Z,100210.84
2022-12-31T18:08:22.802Z,100222.69
2022-12-31T18:10:52.584Z,100219.53
2022-12-31T18:13:23.556Z,100223.53
2022-12-31T18:15:51.582Z,100221.38
2022-12-31T18:18:25.551Z,100222.69
2022-12-31T18:21:02.791Z,100227.63
2022-12-31T18:23:46.083Z,100227.59
2022-12-31T18:26:16.167Z,100234.22
2022-12-31T18:28:44.158Z,100234.50
2022-12-31T18:31:30.588Z,100224.34
2022-12-31T18:33:59.685Z,100217.41
2022-12-31T18:36:28.238Z,100224.63
2022-12-31T18:38:55.941Z,100219.25
2022-12-31T18:41:27.038Z,100226.91
2022-12-31T18:43:55.405Z,100234.22
2022-12-31T18:46:25.405Z,100221.59
2022-12-31T18:48:53.008Z,100230.19
2022-12-31T18:51:29.273Z,100225.66
2022-12-31T18:54:00.589Z,100224.81
2022-12-31T18:56:31.431Z,100213.53
2022-12-31T18:58:59.922Z,100218.56
2022-12-31T19:01:29.555Z,100214.38
2022-12-31T19:04:00.733Z,100212.75
2022-12-31T19:06:30.689Z,100212.75
2022-12-31T19:09:00.846Z,100214.94
2022-12-31T19:11:28.323Z,100223.03
2022-12-31T19:13:55.675Z,100206.31
2022-12-31T19:16:22.729Z,100210.88
2022-12-31T19:18:50.912Z,100205.59
2022-12-31T19:21:23.080Z,100215.81
2022-12-31T19:23:52.052Z,100214.06
2022-12-31T19:26:21.883Z,100210.75
2022-12-31T19:28:51.037Z,100214.25
2022-12-31T19:31:21.769Z,100212.34
2022-12-31T19:33:49.248Z,100212.06
2022-12-31T19:36:20.438Z,100209.03
2022-12-31T19:38:47.814Z,100217.16
2022-12-31T19:41:20.280Z,100216.41
2022-12-31T19:43:48.196Z,100217.94
2022-12-31T19:46:17.560Z,100210.06
2022-12-31T19:48:45.770Z,100211.47
2022-12-31T19:51:17.610Z,100208.81
2022-12-31T19:53:46.108Z,100196.88
2022-12-31T19:56:15.489Z,100206.97
2022-12-31T19:58:43.632Z,100204.53
2022-12-31T20:01:22.940Z,100202.69
2022-12-31T20:03:51.595Z,100201.53
2022-12-31T20:06:19.667Z,100208.75
2022-12-31T20:08:47.015Z,100206.13
2022-12-31T20:11:17.486Z,100207.88
2022-12-31T20:13:46.471Z,100215.41
2022-12-31T20:16:17.209Z,100215.47
2022-12-31T20:18:46.588Z,100206.13
2022-12-31T20:21:19.930Z,100206.66
2022-12-31T20:23:49.466Z,100203.41
2022-12-31T20:26:20.186Z,100199.94
2022-12-31T20:28:48.225Z,100202.84
2022-12-31T20:31:18.800Z,100201.56
2022-12-31T20:33:46.426Z,100201.47
2022-12-31T20:36:15.541Z,100204.56
2022-12-31T20:38:43.419Z,100205.78
2022-12-31T20:41:13.832Z,100203.91
2022-12-31T20:43:41.949Z,100204.25
2022-12-31T20:46:21.369Z,100198.47
2022-12-31T20:48:53.963Z,100202.03
2022-12-31T20:51:22.263Z,100205.09
2022-12-31T20:53:52.264Z,100194.94
2022-12-31T20:56:19.401Z,100204.22
2022-12-31T20:58:49.459Z,100204.13
2022-12-31T21:01:17.548Z,100209.09
2022-12-31T21:06:35.719Z,100202.38
2022-12-31T21:09:06.891Z,100197.28
2022-12-31T21:11:55.091Z,100199.03
2022-12-31T21:14:22.490Z,100207.41
2022-12-31T21:16:49.711Z,100207.88
2022-12-31T21:19:17.308Z,100207.75
2022-12-31T21:21:48.398Z,100203.84
2022-12-31T21:24:21.813Z,100218.72
2022-12-31T21:26:51.160Z,100212.47
2022-12-31T21:29:19.327Z,100209.28
2022-12-31T21:31:46.464Z,100204.13
2022-12-31T21:34:13.874Z,100215.13
2022-12-31T21:36:43.376Z,100213.16
2022-12-31T21:39:10.715Z,100213.78
2022-12-31T21:41:52.989Z,100215.28
2022-12-31T21:44:26.773Z,100208.44
2022-12-31T21:47:34.944Z,100210.28
2022-12-31T21:50:04.015Z,100215.75
2022-12-31T21:52:33.529Z,100203.91
2022-12-31T21:55:21.812Z,100215.00
2022-12-31T22:00:56.803Z,100214.84
2022-12-31T22:03:31.781Z,100208.16
2022-12-31T22:06:05.867Z,100203.59
2022-12-31T22:08:32.910Z,100194.94
2022-12-31T22:11:00.329Z,100198.59
2022-12-31T22:13:27.945Z,100199.03
2022-12-31T22:16:04.234Z,100196.72
2022-12-31T22:18:35.112Z,100191.81
2022-12-31T22:21:02.469Z,100186.81
2022-12-31T22:23:31.333Z,100194.47
2022-12-31T22:26:01.037Z,100198.56
2022-12-31T22:28:40.508Z,100199.63
2022-12-31T22:31:22.886Z,100197.22
2022-12-31T22:33:50.479Z,100191.13
2022-12-31T22:36:20.850Z,100191.81
2022-12-31T22:38:49.598Z,100188.09
2022-12-31T22:41:19.577Z,100188.69
2022-12-31T22:43:58.625Z,100192.69
2022-12-31T22:46:30.289Z,100190.97
2022-12-31T22:48:59.140Z,100180.66
2022-12-31T22:51:54.922Z,100180.69
2022-12-31T22:54:14.816Z,100180.63
2022-12-31T22:56:42.550Z,100193.72
2022-12-31T22:59:09.744Z,100201.00
2022-12-31T23:01:39.680Z,100200.84
2022-12-31T23:04:06.970Z,100190.78
2022-12-31T23:06:43.407Z,100195.47
2022-12-31T23:09:30.511Z,100193.34
2022-12-31T23:11:57.944Z,100205.59
2022-12-31T23:14:43.488Z,100208.84
2022-12-31T23:17:39.759Z,100210.75
2022-12-31T23:20:30.889Z,100212.47
2022-12-31T23:23:10.134Z,100212.22
2022-12-31T23:25:44.829Z,100206.47
2022-12-31T23:28:25.394Z,100209.81
2022-12-31T23:30:52.828Z,100218.91
2022-12-31T23:33:25.793Z,100217.88
2022-12-31T23:36:06.344Z,100221.00
2022-12-31T23:38:33.919Z,100218.88
2022-12-31T23:41:01.001Z,100220.59
2022-12-31T23:43:28.535Z,100214.53
2022-12-31T23:45:55.521Z,100215.78
2022-12-31T23:48:22.854Z,100216.09
2022-12-31T23:50:53.754Z,100210.94
2022-12-31T23:53:23.347Z,100209.91
2022-12-31T23:55:54.171Z,100201.22
2022-12-31T23:58:22.523Z,100191.03
